Aeroporto :
LOGIN :

Iscrizione | Disclaimer

   EN    FR    IT 

 










Sommario :    VFR   VFR Marginale   IFR   IFR Intensivo   IFR Molto Intensivo
Visibilità : 
Base nubi : 
>= 8 km
>= 3000ft
5 / 8 km
1000 / 3000 ft
1500m / 5 km
500 / 1000 ft
800 / 1500m
200 / 500 ft
< 800m
< 200 ft
Simboli :   Temporali  Nebbia  Neve Forte  Precipitazioni Forti  Vento > 20 kt
SIGMETs :   Varie  Temporali  Ghiacco  Turbolenza  Onda orograficha  Ceneri Vulcaniche







- Altitudine del aeroporto : 257 ft
- Codice IATA : MAN
- Carte del aeroporto


EGCC - Manchester

ULTIMO METAR :
  • 170750Z VRB03KT 9999 4500E RADZ SCT006 BKN017 13/12 Q1013 TEMPO 8000 -RA

METARs OBSOLETI :
  • 170720Z AUTO VRB03KT 9999 SCT005 SCT017 BKN022 13/12 Q1013
  • 170650Z 19004KT 140V220 9999 6000S -RA FEW013 BKN019 12/11 Q1014 RERA
  • 170620Z AUTO 20005KT 3400 RA FEW011/// BKN020/// OVC024/// //////TCU 12/11 Q1014
  • 170550Z 21006KT 170V240 5000 RA FEW008 BKN025 12/11 Q1014

TAF AMD TAF EGCC
Valido dal 17 a 07 ore il 18 a 12 ore UTC


170755Z 1707/1812 19009KT 9999 SCT030
TEMPO 1707/1712 4000 RADZ BKN008
TEMPO 1712/1806 8000 -RA
PROB30
TEMPO 1712/1721 SHRA
PROB30
TEMPO 1721/1806 BKN012
ATIS : +44 161 499 2324
Nessun NOTAM noto per questo aeroporto.



MetMap, La meteo Aeronautica in un colpo d'occhio ! - Copyright ORBIFLY Dicembre 2007 - Disclaimer

ORBIFLY MET'MAP TEAM :

Programmazione e sviluppo : Alexandra Zaïnal
Concezione e sviluppo : Baudouin d'Aumeries
Co-Programmazione e sviluppo : Marc-Olivier Méhu
Supporto tecnico e logistico : Manuel Goepfert
Aiuto per la traduzione : Arnaldo La Scala

Contatto : metmap@orbifly.com




FONTI E CREDITI :

   NOAA